sensor_id;sensor_type;location;lat;lon;timestamp;pressure;altitude;pressure_sealevel;temperature;humidity
75551;BME280;65071;53.082;18.218;2023-01-19T00:00:04;99845.28;;;0.82;83.93
75551;BME280;65071;53.082;18.218;2023-01-19T00:02:52;99848.48;;;0.79;84.00
75551;BME280;65071;53.082;18.218;2023-01-19T00:05:20;99852.53;;;0.77;83.99
75551;BME280;65071;53.082;18.218;2023-01-19T00:07:47;99850.91;;;0.75;83.94
75551;BME280;65071;53.082;18.218;2023-01-19T00:10:14;99851.50;;;0.77;83.86
75551;BME280;65071;53.082;18.218;2023-01-19T00:12:41;99854.04;;;0.81;84.15
75551;BME280;65071;53.082;18.218;2023-01-19T00:15:09;99853.05;;;0.85;83.85
75551;BME280;65071;53.082;18.218;2023-01-19T00:17:35;99852.90;;;0.89;83.81
75551;BME280;65071;53.082;18.218;2023-01-19T00:20:02;99855.67;;;0.94;83.73
75551;BME280;65071;53.082;18.218;2023-01-19T00:22:29;99856.69;;;1.00;83.84
75551;BME280;65071;53.082;18.218;2023-01-19T00:24:56;99858.77;;;1.02;83.77
75551;BME280;65071;53.082;18.218;2023-01-19T00:27:22;99864.20;;;1.05;83.62
75551;BME280;65071;53.082;18.218;2023-01-19T00:29:50;99868.58;;;1.08;83.57
75551;BME280;65071;53.082;18.218;2023-01-19T00:32:16;99873.23;;;1.10;83.89
75551;BME280;65071;53.082;18.218;2023-01-19T00:34:45;99878.52;;;1.10;83.69
75551;BME280;65071;53.082;18.218;2023-01-19T00:37:16;99877.55;;;1.09;83.57
75551;BME280;65071;53.082;18.218;2023-01-19T00:39:43;99882.65;;;1.07;83.73
75551;BME280;65071;53.082;18.218;2023-01-19T00:42:11;99882.13;;;1.05;83.88
75551;BME280;65071;53.082;18.218;2023-01-19T00:44:57;99880.46;;;1.01;83.81
75551;BME280;65071;53.082;18.218;2023-01-19T00:47:24;99884.38;;;0.99;83.85
75551;BME280;65071;53.082;18.218;2023-01-19T00:49:50;99889.56;;;0.95;83.88
75551;BME280;65071;53.082;18.218;2023-01-19T00:52:17;99893.31;;;0.90;83.81
75551;BME280;65071;53.082;18.218;2023-01-19T00:54:44;99893.70;;;0.89;83.78
75551;BME280;65071;53.082;18.218;2023-01-19T00:57:11;99895.71;;;0.91;83.62
75551;BME280;65071;53.082;18.218;2023-01-19T00:59:38;99897.78;;;0.90;83.74
75551;BME280;65071;53.082;18.218;2023-01-19T01:02:04;99900.45;;;0.89;83.98
75551;BME280;65071;53.082;18.218;2023-01-19T01:04:31;99899.16;;;0.90;84.02
75551;BME280;65071;53.082;18.218;2023-01-19T01:06:58;99898.20;;;0.91;83.92
75551;BME280;65071;53.082;18.218;2023-01-19T01:09:24;99901.34;;;0.94;83.82
75551;BME280;65071;53.082;18.218;2023-01-19T01:11:51;99901.25;;;1.00;83.78
75551;BME280;65071;53.082;18.218;2023-01-19T01:14:18;99897.80;;;1.03;83.75
75551;BME280;65071;53.082;18.218;2023-01-19T01:16:45;99903.17;;;1.07;83.61
75551;BME280;65071;53.082;18.218;2023-01-19T01:19:11;99905.64;;;1.10;83.38
75551;BME280;65071;53.082;18.218;2023-01-19T01:21:38;99910.86;;;1.09;83.81
75551;BME280;65071;53.082;18.218;2023-01-19T01:24:05;99911.40;;;1.06;83.91
75551;BME280;65071;53.082;18.218;2023-01-19T01:26:32;99914.42;;;1.01;84.22
75551;BME280;65071;53.082;18.218;2023-01-19T01:28:59;99914.40;;;0.97;84.43
75551;BME280;65071;53.082;18.218;2023-01-19T01:31:25;99917.55;;;0.95;84.22
75551;BME280;65071;53.082;18.218;2023-01-19T01:33:52;99921.00;;;0.94;84.26
75551;BME280;65071;53.082;18.218;2023-01-19T01:36:19;99918.80;;;0.93;84.00
75551;BME280;65071;53.082;18.218;2023-01-19T01:38:46;99923.16;;;0.91;84.10
75551;BME280;65071;53.082;18.218;2023-01-19T01:41:13;99928.88;;;0.90;84.14
75551;BME280;65071;53.082;18.218;2023-01-19T01:43:50;99935.22;;;0.96;83.94
75551;BME280;65071;53.082;18.218;2023-01-19T01:46:25;99933.73;;;1.01;83.98
75551;BME280;65071;53.082;18.218;2023-01-19T01:49:12;99939.14;;;1.05;83.82
75551;BME280;65071;53.082;18.218;2023-01-19T01:51:45;99945.50;;;1.07;83.74
75551;BME280;65071;53.082;18.218;2023-01-19T01:54:23;99953.49;;;1.12;83.89
75551;BME280;65071;53.082;18.218;2023-01-19T01:56:52;99959.71;;;1.16;83.82
75551;BME280;65071;53.082;18.218;2023-01-19T01:59:26;99961.52;;;1.18;83.58
75551;BME280;65071;53.082;18.218;2023-01-19T02:01:56;99970.29;;;1.14;83.96
75551;BME280;65071;53.082;18.218;2023-01-19T02:04:46;99975.34;;;1.13;83.97
75551;BME280;65071;53.082;18.218;2023-01-19T02:07:20;99979.41;;;1.11;84.04
75551;BME280;65071;53.082;18.218;2023-01-19T02:10:08;99982.88;;;1.09;84.05
75551;BME280;65071;53.082;18.218;2023-01-19T02:12:54;99980.67;;;1.06;84.00
75551;BME280;65071;53.082;18.218;2023-01-19T02:15:44;99978.80;;;1.05;84.33
75551;BME280;65071;53.082;18.218;2023-01-19T02:18:11;99976.48;;;1.03;84.17
75551;BME280;65071;53.082;18.218;2023-01-19T02:20:39;99975.52;;;1.01;84.31
75551;BME280;65071;53.082;18.218;2023-01-19T02:23:16;99973.96;;;0.98;84.18
75551;BME280;65071;53.082;18.218;2023-01-19T02:25:46;99968.34;;;0.97;84.22
75551;BME280;65071;53.082;18.218;2023-01-19T02:28:14;99968.63;;;0.99;84.11
75551;BME280;65071;53.082;18.218;2023-01-19T02:30:41;99975.93;;;1.00;84.46
75551;BME280;65071;53.082;18.218;2023-01-19T02:33:08;99974.38;;;1.02;84.65
75551;BME280;65071;53.082;18.218;2023-01-19T02:35:36;99968.81;;;1.06;84.37
75551;BME280;65071;53.082;18.218;2023-01-19T02:38:05;99977.65;;;1.08;84.27
75551;BME280;65071;53.082;18.218;2023-01-19T02:40:34;99980.83;;;1.11;84.30
75551;BME280;65071;53.082;18.218;2023-01-19T02:43:03;99976.11;;;1.15;84.10
75551;BME280;65071;53.082;18.218;2023-01-19T02:45:31;99972.11;;;1.18;84.17
75551;BME280;65071;53.082;18.218;2023-01-19T02:47:58;99970.94;;;1.20;84.43
75551;BME280;65071;53.082;18.218;2023-01-19T02:50:42;99975.15;;;1.20;84.05
75551;BME280;65071;53.082;18.218;2023-01-19T02:55:52;99979.61;;;1.15;84.13
75551;BME280;65071;53.082;18.218;2023-01-19T02:58:39;99982.39;;;1.14;84.01
75551;BME280;65071;53.082;18.218;2023-01-19T03:01:27;99987.64;;;1.12;84.39
75551;BME280;65071;53.082;18.218;2023-01-19T03:04:04;99992.36;;;1.11;83.88
75551;BME280;65071;53.082;18.218;2023-01-19T03:07:01;99988.54;;;1.07;84.30
75551;BME280;65071;53.082;18.218;2023-01-19T03:09:47;99991.33;;;1.03;83.99
75551;BME280;65071;53.082;18.218;2023-01-19T03:19:08;99989.73;;;1.08;83.98
75551;BME280;65071;53.082;18.218;2023-01-19T03:21:40;99989.60;;;1.10;83.96
75551;BME280;65071;53.082;18.218;2023-01-19T03:24:10;99985.02;;;1.12;83.97
75551;BME280;65071;53.082;18.218;2023-01-19T03:26:43;99984.16;;;1.14;84.04
75551;BME280;65071;53.082;18.218;2023-01-19T03:29:12;99982.80;;;1.17;84.20
75551;BME280;65071;53.082;18.218;2023-01-19T03:31:42;99989.98;;;1.21;83.70
75551;BME280;65071;53.082;18.218;2023-01-19T03:34:13;99988.85;;;1.24;83.82
75551;BME280;65071;53.082;18.218;2023-01-19T03:36:42;99988.74;;;1.26;84.02
75551;BME280;65071;53.082;18.218;2023-01-19T03:39:10;99995.48;;;1.26;83.84
75551;BME280;65071;53.082;18.218;2023-01-19T03:41:40;99997.33;;;1.24;83.86
75551;BME280;65071;53.082;18.218;2023-01-19T03:44:09;99994.94;;;1.23;84.23
75551;BME280;65071;53.082;18.218;2023-01-19T03:46:37;99996.65;;;1.22;84.09
75551;BME280;65071;53.082;18.218;2023-01-19T03:49:05;99999.23;;;1.20;84.02
75551;BME280;65071;53.082;18.218;2023-01-19T03:51:37;100007.52;;;1.18;83.78
75551;BME280;65071;53.082;18.218;2023-01-19T03:54:05;100008.45;;;1.16;84.09
75551;BME280;65071;53.082;18.218;2023-01-19T03:56:32;100005.10;;;1.13;84.20
75551;BME280;65071;53.082;18.218;2023-01-19T03:58:58;100009.10;;;1.12;84.19
75551;BME280;65071;53.082;18.218;2023-01-19T04:01:25;100012.40;;;1.20;83.96
75551;BME280;65071;53.082;18.218;2023-01-19T04:03:52;100011.16;;;1.22;83.87
75551;BME280;65071;53.082;18.218;2023-01-19T04:06:20;100013.53;;;1.23;83.90
75551;BME280;65071;53.082;18.218;2023-01-19T04:08:48;100016.27;;;1.27;83.83
75551;BME280;65071;53.082;18.218;2023-01-19T04:11:15;100023.02;;;1.29;83.63
75551;BME280;65071;53.082;18.218;2023-01-19T04:13:42;100020.44;;;1.30;84.14
75551;BME280;65071;53.082;18.218;2023-01-19T04:16:09;100015.45;;;1.31;84.08
75551;BME280;65071;53.082;18.218;2023-01-19T04:18:36;100011.39;;;1.28;83.88
75551;BME280;65071;53.082;18.218;2023-01-19T04:21:05;100011.45;;;1.25;84.36
75551;BME280;65071;53.082;18.218;2023-01-19T04:23:32;100002.25;;;1.23;84.13
75551;BME280;65071;53.082;18.218;2023-01-19T04:26:01;99996.35;;;1.21;84.18
75551;BME280;65071;53.082;18.218;2023-01-19T04:28:29;100003.41;;;1.19;83.78
75551;BME280;65071;53.082;18.218;2023-01-19T04:30:55;100008.97;;;1.15;83.85
75551;BME280;65071;53.082;18.218;2023-01-19T04:33:23;100004.96;;;1.10;83.95
75551;BME280;65071;53.082;18.218;2023-01-19T04:35:50;100005.64;;;1.03;84.01
75551;BME280;65071;53.082;18.218;2023-01-19T04:38:19;100007.02;;;0.97;83.87
75551;BME280;65071;53.082;18.218;2023-01-19T04:40:47;100000.59;;;0.98;83.87
75551;BME280;65071;53.082;18.218;2023-01-19T04:43:14;99999.65;;;0.93;83.61
75551;BME280;65071;53.082;18.218;2023-01-19T04:45:40;100003.52;;;0.86;83.71
75551;BME280;65071;53.082;18.218;2023-01-19T04:48:10;100012.04;;;0.79;83.87
75551;BME280;65071;53.082;18.218;2023-01-19T04:50:38;100022.02;;;0.73;83.63
75551;BME280;65071;53.082;18.218;2023-01-19T04:53:04;100028.83;;;0.69;83.69
75551;BME280;65071;53.082;18.218;2023-01-19T04:55:31;100032.89;;;0.62;83.90
75551;BME280;65071;53.082;18.218;2023-01-19T04:57:58;100027.13;;;0.56;84.03
75551;BME280;65071;53.082;18.218;2023-01-19T05:00:25;100029.89;;;0.54;84.06
75551;BME280;65071;53.082;18.218;2023-01-19T05:02:52;100031.48;;;0.52;84.03
75551;BME280;65071;53.082;18.218;2023-01-19T05:05:19;100034.70;;;0.49;83.76
75551;BME280;65071;53.082;18.218;2023-01-19T05:07:45;100040.38;;;0.46;84.28
75551;BME280;65071;53.082;18.218;2023-01-19T05:10:12;100042.14;;;0.44;84.08
75551;BME280;65071;53.082;18.218;2023-01-19T05:12:39;100041.31;;;0.43;83.95
75551;BME280;65071;53.082;18.218;2023-01-19T05:15:06;100041.35;;;0.42;84.07
75551;BME280;65071;53.082;18.218;2023-01-19T05:17:35;100037.69;;;0.42;84.15
75551;BME280;65071;53.082;18.218;2023-01-19T05:20:02;100040.55;;;0.51;83.98
75551;BME280;65071;53.082;18.218;2023-01-19T05:22:29;100045.42;;;0.57;83.89
75551;BME280;65071;53.082;18.218;2023-01-19T05:24:55;100048.55;;;0.63;83.79
75551;BME280;65071;53.082;18.218;2023-01-19T05:27:22;100048.59;;;0.67;83.82
75551;BME280;65071;53.082;18.218;2023-01-19T05:29:49;100049.86;;;0.72;83.92
75551;BME280;65071;53.082;18.218;2023-01-19T05:32:15;100047.25;;;0.76;84.06
75551;BME280;65071;53.082;18.218;2023-01-19T05:34:42;100048.73;;;0.80;83.88
75551;BME280;65071;53.082;18.218;2023-01-19T05:37:08;100050.30;;;0.81;83.85
75551;BME280;65071;53.082;18.218;2023-01-19T05:39:35;100054.22;;;0.81;83.97
75551;BME280;65071;53.082;18.218;2023-01-19T05:42:01;100057.10;;;0.80;83.97
75551;BME280;65071;53.082;18.218;2023-01-19T05:44:28;100060.64;;;0.80;84.09
75551;BME280;65071;53.082;18.218;2023-01-19T05:46:55;100058.36;;;0.77;84.20
75551;BME280;65071;53.082;18.218;2023-01-19T05:49:21;100063.19;;;0.74;84.06
75551;BME280;65071;53.082;18.218;2023-01-19T05:51:48;100065.63;;;0.72;84.45
75551;BME280;65071;53.082;18.218;2023-01-19T05:54:14;100066.55;;;0.71;84.33
75551;BME280;65071;53.082;18.218;2023-01-19T05:56:41;100071.02;;;0.70;84.24
75551;BME280;65071;53.082;18.218;2023-01-19T05:59:09;100074.30;;;0.69;83.99
75551;BME280;65071;53.082;18.218;2023-01-19T06:01:36;100078.07;;;0.73;83.70
75551;BME280;65071;53.082;18.218;2023-01-19T06:04:03;100081.40;;;0.77;83.81
75551;BME280;65071;53.082;18.218;2023-01-19T06:06:30;100084.97;;;0.79;84.03
75551;BME280;65071;53.082;18.218;2023-01-19T06:08:57;100089.79;;;0.81;83.83
75551;BME280;65071;53.082;18.218;2023-01-19T06:11:24;100096.06;;;0.84;84.02
75551;BME280;65071;53.082;18.218;2023-01-19T06:13:51;100101.46;;;0.88;84.10
75551;BME280;65071;53.082;18.218;2023-01-19T06:16:18;100111.65;;;0.89;83.86
75551;BME280;65071;53.082;18.218;2023-01-19T06:18:45;100112.51;;;0.90;84.41
75551;BME280;65071;53.082;18.218;2023-01-19T06:21:11;100115.80;;;0.88;84.22
75551;BME280;65071;53.082;18.218;2023-01-19T06:23:40;100115.55;;;0.89;84.36
75551;BME280;65071;53.082;18.218;2023-01-19T06:26:06;100119.89;;;0.90;84.35
75551;BME280;65071;53.082;18.218;2023-01-19T06:28:33;100123.59;;;0.91;84.56
75551;BME280;65071;53.082;18.218;2023-01-19T06:31:00;100132.89;;;0.89;84.28
75551;BME280;65071;53.082;18.218;2023-01-19T06:33:27;100142.11;;;0.89;84.61
75551;BME280;65071;53.082;18.218;2023-01-19T06:35:54;100152.35;;;0.89;84.43
75551;BME280;65071;53.082;18.218;2023-01-19T06:38:21;100160.20;;;0.89;84.47
75551;BME280;65071;53.082;18.218;2023-01-19T06:40:56;100165.26;;;0.87;84.21
75551;BME280;65071;53.082;18.218;2023-01-19T06:43:30;100173.91;;;0.90;84.34
75551;BME280;65071;53.082;18.218;2023-01-19T06:45:57;100178.42;;;0.91;83.88
75551;BME280;65071;53.082;18.218;2023-01-19T06:48:26;100181.14;;;0.93;84.55
75551;BME280;65071;53.082;18.218;2023-01-19T06:50:52;100182.80;;;0.94;84.57
75551;BME280;65071;53.082;18.218;2023-01-19T06:53:19;100187.27;;;0.96;84.53
75551;BME280;65071;53.082;18.218;2023-01-19T06:55:47;100191.02;;;0.96;84.71
75551;BME280;65071;53.082;18.218;2023-01-19T06:58:14;100194.73;;;0.96;84.62
75551;BME280;65071;53.082;18.218;2023-01-19T07:00:41;100198.19;;;0.95;85.36
75551;BME280;65071;53.082;18.218;2023-01-19T07:03:15;100200.29;;;0.95;85.10
75551;BME280;65071;53.082;18.218;2023-01-19T07:05:43;100201.77;;;0.96;85.02
75551;BME280;65071;53.082;18.218;2023-01-19T07:08:10;100206.42;;;0.98;84.57
75551;BME280;65071;53.082;18.218;2023-01-19T07:10:36;100202.83;;;0.99;84.69
75551;BME280;65071;53.082;18.218;2023-01-19T07:13:03;100207.51;;;1.03;84.83
75551;BME280;65071;53.082;18.218;2023-01-19T07:15:29;100213.27;;;1.09;84.47
75551;BME280;65071;53.082;18.218;2023-01-19T07:17:57;100212.73;;;1.14;84.44
75551;BME280;65071;53.082;18.218;2023-01-19T07:20:24;100218.61;;;1.18;84.39
75551;BME280;65071;53.082;18.218;2023-01-19T07:22:55;100225.89;;;1.23;84.58
75551;BME280;65071;53.082;18.218;2023-01-19T07:25:22;100229.45;;;1.31;84.22
75551;BME280;65071;53.082;18.218;2023-01-19T07:27:48;100223.85;;;1.37;84.57
75551;BME280;65071;53.082;18.218;2023-01-19T07:30:15;100222.24;;;1.42;84.45
75551;BME280;65071;53.082;18.218;2023-01-19T07:32:42;100220.79;;;1.48;84.07
75551;BME280;65071;53.082;18.218;2023-01-19T07:35:09;100225.36;;;1.49;84.38
75551;BME280;65071;53.082;18.218;2023-01-19T07:37:35;100230.61;;;1.49;84.49
75551;BME280;65071;53.082;18.218;2023-01-19T07:40:03;100234.69;;;1.52;84.69
75551;BME280;65071;53.082;18.218;2023-01-19T07:42:30;100240.33;;;1.52;84.25
75551;BME280;65071;53.082;18.218;2023-01-19T07:44:56;100245.98;;;1.53;84.10
75551;BME280;65071;53.082;18.218;2023-01-19T07:47:23;100246.39;;;1.52;84.25
75551;BME280;65071;53.082;18.218;2023-01-19T07:49:50;100243.25;;;1.51;84.13
75551;BME280;65071;53.082;18.218;2023-01-19T07:52:16;100245.65;;;1.50;84.32
75551;BME280;65071;53.082;18.218;2023-01-19T07:54:43;100245.56;;;1.45;84.47
75551;BME280;65071;53.082;18.218;2023-01-19T07:57:10;100251.31;;;1.50;84.24
75551;BME280;65071;53.082;18.218;2023-01-19T07:59:36;100255.48;;;1.51;84.14
75551;BME280;65071;53.082;18.218;2023-01-19T08:02:04;100256.17;;;1.51;84.03
75551;BME280;65071;53.082;18.218;2023-01-19T08:04:31;100253.92;;;1.53;84.14
75551;BME280;65071;53.082;18.218;2023-01-19T08:06:57;100252.42;;;1.57;83.95
75551;BME280;65071;53.082;18.218;2023-01-19T08:09:24;100252.92;;;1.59;84.41
75551;BME280;65071;53.082;18.218;2023-01-19T08:11:50;100253.51;;;1.61;84.38
75551;BME280;65071;53.082;18.218;2023-01-19T08:14:17;100253.41;;;1.62;84.40
75551;BME280;65071;53.082;18.218;2023-01-19T08:16:43;100252.70;;;1.65;84.53
75551;BME280;65071;53.082;18.218;2023-01-19T08:19:10;100255.02;;;1.65;84.35
75551;BME280;65071;53.082;18.218;2023-01-19T08:21:37;100255.45;;;1.62;84.41
75551;BME280;65071;53.082;18.218;2023-01-19T08:24:05;100253.30;;;1.59;84.06
75551;BME280;65071;53.082;18.218;2023-01-19T08:26:33;100254.14;;;1.57;84.40
75551;BME280;65071;53.082;18.218;2023-01-19T08:29:03;100260.10;;;1.56;84.00
75551;BME280;65071;53.082;18.218;2023-01-19T08:31:30;100264.74;;;1.55;84.12
75551;BME280;65071;53.082;18.218;2023-01-19T08:33:56;100266.30;;;1.56;84.13
75551;BME280;65071;53.082;18.218;2023-01-19T08:36:23;100270.49;;;1.56;83.81
75551;BME280;65071;53.082;18.218;2023-01-19T08:38:50;100268.88;;;1.64;84.36
75551;BME280;65071;53.082;18.218;2023-01-19T08:41:17;100271.73;;;1.69;84.15
75551;BME280;65071;53.082;18.218;2023-01-19T08:43:44;100275.00;;;1.75;83.90
75551;BME280;65071;53.082;18.218;2023-01-19T08:46:11;100275.92;;;1.82;83.72
75551;BME280;65071;53.082;18.218;2023-01-19T08:48:42;100277.86;;;1.85;84.47
75551;BME280;65071;53.082;18.218;2023-01-19T08:51:11;100278.32;;;1.86;84.14
75551;BME280;65071;53.082;18.218;2023-01-19T08:53:38;100282.03;;;1.89;84.17
75551;BME280;65071;53.082;18.218;2023-01-19T08:56:06;100283.00;;;1.89;83.70
75551;BME280;65071;53.082;18.218;2023-01-19T08:58:38;100282.88;;;1.89;84.44
75551;BME280;65071;53.082;18.218;2023-01-19T09:01:06;100284.92;;;1.90;84.30
75551;BME280;65071;53.082;18.218;2023-01-19T09:03:35;100282.61;;;1.90;84.29
75551;BME280;65071;53.082;18.218;2023-01-19T09:06:09;100282.83;;;1.99;83.91
75551;BME280;65071;53.082;18.218;2023-01-19T09:15:14;100282.24;;;2.19;82.95
75551;BME280;65071;53.082;18.218;2023-01-19T09:17:40;100284.52;;;2.20;83.26
75551;BME280;65071;53.082;18.218;2023-01-19T09:20:09;100288.02;;;2.23;83.64
75551;BME280;65071;53.082;18.218;2023-01-19T09:22:36;100289.17;;;2.24;83.46
75551;BME280;65071;53.082;18.218;2023-01-19T09:25:06;100290.97;;;2.21;83.79
75551;BME280;65071;53.082;18.218;2023-01-19T09:27:32;100287.90;;;2.17;83.35
75551;BME280;65071;53.082;18.218;2023-01-19T09:29:57;100290.40;;;2.12;83.38
75551;BME280;65071;53.082;18.218;2023-01-19T09:32:23;100284.48;;;2.06;83.91
75551;BME280;65071;53.082;18.218;2023-01-19T09:50:00;100282.61;;;2.45;83.19
75551;BME280;65071;53.082;18.218;2023-01-19T09:52:30;100286.80;;;2.49;82.94
75551;BME280;65071;53.082;18.218;2023-01-19T09:54:57;100286.93;;;2.49;83.39
75551;BME280;65071;53.082;18.218;2023-01-19T09:57:24;100288.23;;;2.48;83.09
75551;BME280;65071;53.082;18.218;2023-01-19T09:59:52;100283.11;;;2.46;83.40
75551;BME280;65071;53.082;18.218;2023-01-19T10:02:35;100280.66;;;2.45;83.15
75551;BME280;65071;53.082;18.218;2023-01-19T10:10:30;100268.56;;;2.46;83.23
75551;BME280;65071;53.082;18.218;2023-01-19T10:13:13;100265.69;;;2.46;83.18
75551;BME280;65071;53.082;18.218;2023-01-19T10:16:08;100260.91;;;2.51;82.74
75551;BME280;65071;53.082;18.218;2023-01-19T10:18:45;100257.89;;;2.51;82.28
75551;BME280;65071;53.082;18.218;2023-01-19T10:24:29;100257.05;;;2.50;82.61
75551;BME280;65071;53.082;18.218;2023-01-19T10:26:57;100252.79;;;2.55;82.61
75551;BME280;65071;53.082;18.218;2023-01-19T10:29:34;100256.03;;;2.59;82.69
75551;BME280;65071;53.082;18.218;2023-01-19T10:32:36;100254.27;;;2.49;82.60
75551;BME280;65071;53.082;18.218;2023-01-19T10:35:13;100256.38;;;2.42;83.23
75551;BME280;65071;53.082;18.218;2023-01-19T10:37:46;100260.45;;;2.40;83.83
75551;BME280;65071;53.082;18.218;2023-01-19T10:40:14;100264.49;;;2.36;83.59
75551;BME280;65071;53.082;18.218;2023-01-19T10:42:44;100263.76;;;2.39;83.92
75551;BME280;65071;53.082;18.218;2023-01-19T10:45:20;100266.80;;;2.46;83.68
75551;BME280;65071;53.082;18.218;2023-01-19T10:47:48;100270.72;;;2.50;83.77
75551;BME280;65071;53.082;18.218;2023-01-19T10:50:27;100270.49;;;2.55;83.54
75551;BME280;65071;53.082;18.218;2023-01-19T10:52:57;100271.23;;;2.55;83.37
75551;BME280;65071;53.082;18.218;2023-01-19T10:55:29;100273.96;;;2.52;83.31
75551;BME280;65071;53.082;18.218;2023-01-19T10:57:56;100275.96;;;2.51;83.37
75551;BME280;65071;53.082;18.218;2023-01-19T11:00:41;100279.77;;;2.48;83.10
75551;BME280;65071;53.082;18.218;2023-01-19T11:03:29;100288.79;;;2.48;82.89
75551;BME280;65071;53.082;18.218;2023-01-19T11:08:42;100290.19;;;2.56;83.38
75551;BME280;65071;53.082;18.218;2023-01-19T11:11:09;100286.20;;;2.64;82.81
75551;BME280;65071;53.082;18.218;2023-01-19T11:13:38;100288.35;;;2.68;82.84
75551;BME280;65071;53.082;18.218;2023-01-19T11:18:43;100287.25;;;2.66;82.62
75551;BME280;65071;53.082;18.218;2023-01-19T11:21:12;100285.20;;;2.67;82.34
75551;BME280;65071;53.082;18.218;2023-01-19T11:23:44;100282.08;;;2.62;82.09
75551;BME280;65071;53.082;18.218;2023-01-19T11:26:33;100278.86;;;2.62;82.34
75551;BME280;65071;53.082;18.218;2023-01-19T11:29:04;100275.60;;;2.60;82.08
75551;BME280;65071;53.082;18.218;2023-01-19T11:31:33;100273.48;;;2.60;82.69
75551;BME280;65071;53.082;18.218;2023-01-19T11:34:02;100270.58;;;2.66;82.53
75551;BME280;65071;53.082;18.218;2023-01-19T11:36:30;100271.79;;;2.76;82.59
75551;BME280;65071;53.082;18.218;2023-01-19T11:39:19;100266.50;;;2.84;82.45
75551;BME280;65071;53.082;18.218;2023-01-19T11:41:48;100262.95;;;2.93;82.60
75551;BME280;65071;53.082;18.218;2023-01-19T11:44:20;100267.34;;;2.99;81.85
75551;BME280;65071;53.082;18.218;2023-01-19T11:46:53;100265.25;;;2.99;81.45
75551;BME280;65071;53.082;18.218;2023-01-19T11:49:26;100266.79;;;2.99;81.70
75551;BME280;65071;53.082;18.218;2023-01-19T11:52:24;100267.08;;;2.98;81.75
75551;BME280;65071;53.082;18.218;2023-01-19T11:55:05;100270.59;;;2.91;81.44
75551;BME280;65071;53.082;18.218;2023-01-19T11:57:48;100272.02;;;2.89;81.76
75551;BME280;65071;53.082;18.218;2023-01-19T12:05:49;100263.64;;;2.78;82.05
75551;BME280;65071;53.082;18.218;2023-01-19T12:08:19;100267.23;;;2.73;82.08
75551;BME280;65071;53.082;18.218;2023-01-19T12:10:49;100267.55;;;2.78;81.71
75551;BME280;65071;53.082;18.218;2023-01-19T12:13:21;100267.91;;;2.80;81.64
75551;BME280;65071;53.082;18.218;2023-01-19T12:15:50;100265.80;;;2.79;81.92
75551;BME280;65071;53.082;18.218;2023-01-19T12:18:18;100263.55;;;2.84;81.79
75551;BME280;65071;53.082;18.218;2023-01-19T12:20:48;100260.02;;;2.90;81.86
75551;BME280;65071;53.082;18.218;2023-01-19T12:28:47;100259.77;;;3.25;81.72
75551;BME280;65071;53.082;18.218;2023-01-19T12:31:16;100256.84;;;3.33;81.56
75551;BME280;65071;53.082;18.218;2023-01-19T12:33:43;100251.07;;;3.43;81.34
75551;BME280;65071;53.082;18.218;2023-01-19T12:41:33;100246.52;;;3.51;80.85
75551;BME280;65071;53.082;18.218;2023-01-19T12:46:37;100244.05;;;3.49;81.07
75551;BME280;65071;53.082;18.218;2023-01-19T12:49:20;100245.85;;;3.51;81.01
75551;BME280;65071;53.082;18.218;2023-01-19T12:51:48;100246.13;;;3.49;80.93
75551;BME280;65071;53.082;18.218;2023-01-19T12:54:28;100247.75;;;3.49;81.38
75551;BME280;65071;53.082;18.218;2023-01-19T12:56:59;100249.39;;;3.49;80.89
75551;BME280;65071;53.082;18.218;2023-01-19T12:59:27;100254.52;;;3.45;81.01
75551;BME280;65071;53.082;18.218;2023-01-19T13:04:38;100257.29;;;3.39;81.12
75551;BME280;65071;53.082;18.218;2023-01-19T13:07:04;100258.04;;;3.34;80.90
75551;BME280;65071;53.082;18.218;2023-01-19T13:09:37;100262.10;;;3.28;80.78
75551;BME280;65071;53.082;18.218;2023-01-19T13:14:40;100265.95;;;3.17;81.33
75551;BME280;65071;53.082;18.218;2023-01-19T13:17:22;100269.84;;;3.19;80.81
75551;BME280;65071;53.082;18.218;2023-01-19T13:20:00;100270.99;;;3.16;80.99
75551;BME280;65071;53.082;18.218;2023-01-19T13:25:31;100278.11;;;3.00;81.45
75551;BME280;65071;53.082;18.218;2023-01-19T13:28:00;100282.39;;;2.98;81.23
75551;BME280;65071;53.082;18.218;2023-01-19T13:30:28;100280.04;;;2.96;80.87
75551;BME280;65071;53.082;18.218;2023-01-19T13:32:57;100279.34;;;2.93;81.53
75551;BME280;65071;53.082;18.218;2023-01-19T13:35:27;100280.39;;;2.88;81.23
75551;BME280;65071;53.082;18.218;2023-01-19T13:37:54;100279.36;;;2.86;81.52
75551;BME280;65071;53.082;18.218;2023-01-19T13:40:24;100281.87;;;2.88;81.31
75551;BME280;65071;53.082;18.218;2023-01-19T13:42:56;100280.84;;;2.89;81.67
75551;BME280;65071;53.082;18.218;2023-01-19T13:45:33;100275.50;;;2.83;81.86
75551;BME280;65071;53.082;18.218;2023-01-19T13:48:07;100276.54;;;2.76;81.66
75551;BME280;65071;53.082;18.218;2023-01-19T13:50:35;100275.70;;;2.71;82.18
75551;BME280;65071;53.082;18.218;2023-01-19T13:53:18;100279.92;;;2.72;81.83
75551;BME280;65071;53.082;18.218;2023-01-19T13:55:45;100282.27;;;2.68;82.35
75551;BME280;65071;53.082;18.218;2023-01-19T13:58:20;100275.40;;;2.58;83.39
75551;BME280;65071;53.082;18.218;2023-01-19T14:00:46;100273.02;;;2.62;82.66
75551;BME280;65071;53.082;18.218;2023-01-19T14:03:17;100275.40;;;2.68;82.85
75551;BME280;65071;53.082;18.218;2023-01-19T14:05:52;100278.02;;;2.71;82.90
75551;BME280;65071;53.082;18.218;2023-01-19T14:08:20;100279.82;;;2.75;82.10
75551;BME280;65071;53.082;18.218;2023-01-19T14:10:59;100285.41;;;2.83;82.34
75551;BME280;65071;53.082;18.218;2023-01-19T14:13:31;100291.89;;;2.89;82.23
75551;BME280;65071;53.082;18.218;2023-01-19T14:16:03;100287.80;;;2.91;82.12
75551;BME280;65071;53.082;18.218;2023-01-19T14:18:31;100286.95;;;2.91;81.77